Time;durP1;ratioP1;P1;durP2;ratioP2;P2;SDS_P1;SDS_P2;PMS_P1;PMS_P2;Temp;Humidity;BMP_temperature;BMP_pressure;BME280_temperature;BME280_humidity;BME280_pressure;Samples;Min_cycle;Max_cycle;Signal;HPM_P1;HPM_P2
2023/03/14 04:58:31;;;;;;;19.10;9.60;;;;;;;9.94;57.87;99442.53;5607568;31;83374;-56
2023/03/14 05:01:35;;;;;;;12.98;9.10;;;;;;;9.94;57.87;99442.53;5584088;31;33275;-56
2023/03/14 05:04:38;;;;;;;14.85;8.57;;;;;;;9.53;59.11;99455.88;5584094;31;34344;-56
2023/03/14 05:07:41;;;;;;;13.70;8.88;;;;;;;9.65;74.51;99443.63;5584141;31;34327;-56
2023/03/14 05:10:44;;;;;;;13.57;8.80;;;;;;;9.63;58.02;99445.81;5583928;31;34357;-56
2023/03/14 05:13:47;;;;;;;15.85;8.93;;;;;;;9.65;57.89;99446.28;5584140;32;33808;-56
2023/03/14 05:16:49;;;;;;;17.92;9.32;;;;;;;9.73;57.51;99435.97;5567430;31;33257;-56
2023/03/14 05:19:52;;;;;;;17.42;10.07;;;;;;;9.73;58.40;99435.97;5569714;32;33639;-56
2023/03/14 05:22:54;;;;;;;14.95;9.45;;;;;;;9.84;56.13;99429.34;5583680;31;33196;-56
2023/03/14 05:25:57;;;;;;;15.57;8.57;;;;;;;10.02;57.08;99430.31;5583712;32;33699;-56
2023/03/14 05:28:59;;;;;;;12.88;9.23;;;;;;;10.10;58.37;99424.28;5583680;31;34145;-56
2023/03/14 05:32:02;;;;;;;15.05;8.43;;;;;;;10.25;60.94;99423.16;5583241;31;34485;-56
2023/03/14 05:35:05;;;;;;;11.77;8.63;;;;;;;10.34;63.93;99421.37;5583673;31;33632;-56
2023/03/14 05:38:07;;;;;;;12.37;8.63;;;;;;;10.46;57.83;99418.97;5583359;31;33421;-56
2023/03/14 05:41:10;;;;;;;12.93;8.55;;;;;;;10.41;55.49;99411.03;5583710;31;33458;-56
2023/03/14 05:44:13;;;;;;;13.20;8.80;;;;;;;10.48;60.13;99402.56;5583329;31;33390;-56
2023/03/14 05:47:15;;;;;;;12.95;8.32;;;;;;;10.52;55.38;99407.00;5583661;31;34325;-56
2023/03/14 05:50:18;;;;;;;14.98;8.02;;;;;;;10.46;54.33;99415.47;5583581;31;34447;-56
2023/03/14 05:53:21;;;;;;;13.80;8.73;;;;;;;10.64;69.53;99419.88;5583619;32;33737;-56
2023/03/14 05:56:24;;;;;;;11.93;8.60;;;;;;;10.65;57.52;99415.31;5582969;31;33407;-56
2023/03/14 05:59:26;;;;;;;12.95;8.10;;;;;;;10.69;55.53;99422.44;5583483;31;33048;-56
2023/03/14 06:02:29;;;;;;;11.07;7.75;;;;;;;10.68;54.46;99428.91;5582826;31;34399;-57
2023/03/14 06:05:32;;;;;;;12.82;9.40;;;;;;;10.70;56.19;99423.25;5582945;31;33296;-56
2023/03/14 06:08:35;;;;;;;12.60;9.15;;;;;;;10.69;54.70;99427.78;5574731;32;33726;-56
2023/03/14 06:11:37;;;;;;;14.18;8.07;;;;;;;10.78;53.39;99430.56;5570241;31;33305;-56
2023/03/14 06:14:40;;;;;;;18.60;8.80;;;;;;;10.87;53.56;99422.59;5569806;31;33623;-56
2023/03/14 06:17:43;;;;;;;11.02;7.80;;;;;;;10.93;54.35;99421.37;5569884;31;33341;-56
2023/03/14 06:20:45;;;;;;;13.55;8.55;;;;;;;11.16;68.82;99424.78;5570022;31;33359;-56
2023/03/14 06:23:48;;;;;;;12.85;8.20;;;;;;;11.27;56.72;99424.25;5569343;31;33273;-56
2023/03/14 06:26:51;;;;;;;13.88;8.02;;;;;;;11.36;53.77;99418.94;5569423;31;34550;-56
2023/03/14 06:29:54;;;;;;;13.30;7.85;;;;;;;11.51;57.24;99415.03;5569898;32;34437;-56
2023/03/14 06:32:56;;;;;;;14.18;8.77;;;;;;;11.43;53.02;99424.63;5569740;32;34525;-56
2023/03/14 06:35:59;;;;;;;14.52;8.18;;;;;;;11.62;53.46;99427.09;5569319;31;33997;-56
2023/03/14 06:39:01;;;;;;;17.08;9.25;;;;;;;11.58;60.08;99428.00;5569662;31;33409;-56
2023/03/14 06:42:05;;;;;;;13.20;8.27;;;;;;;11.64;52.84;99421.41;5569058;32;33241;-56
2023/03/14 06:45:08;;;;;;;17.12;8.85;;;;;;;11.63;54.67;99430.56;5569285;31;33861;-56
2023/03/14 06:48:11;;;;;;;17.60;9.13;;;;;;;11.61;55.36;99430.84;5569374;32;33572;-56
2023/03/14 06:51:13;;;;;;;15.68;9.45;;;;;;;11.58;51.85;99433.38;5569079;32;34316;-56
2023/03/14 06:54:16;;;;;;;16.42;8.73;;;;;;;11.59;53.32;99434.94;5569165;31;33617;-56
2023/03/14 06:57:18;;;;;;;20.15;8.98;;;;;;;11.67;63.75;99429.63;5558682;31;33440;-56
2023/03/14 07:00:22;;;;;;;18.90;8.35;;;;;;;11.68;53.78;99436.56;5558226;32;33452;-56
2023/03/14 07:03:26;;;;;;;15.13;8.10;;;;;;;11.90;54.40;99427.69;5561812;31;33587;-56
2023/03/14 07:06:29;;;;;;;15.27;9.05;;;;;;;12.06;63.66;99430.72;5556587;32;34570;-56
2023/03/14 07:09:32;;;;;;;12.98;8.55;;;;;;;12.06;58.06;99433.41;5569564;32;33647;-56
2023/03/14 07:12:35;;;;;;;15.75;8.82;;;;;;;11.97;53.43;99428.00;5568487;31;33482;-56
2023/03/14 07:15:37;;;;;;;18.15;7.97;;;;;;;11.94;51.94;99434.00;5568534;31;32232;-56
2023/03/14 07:18:44;;;;;;;16.17;8.68;;;;;;;12.01;62.55;99428.19;5561708;31;31884;-56
2023/03/14 07:21:46;;;;;;;19.37;8.52;;;;;;;11.91;63.25;99437.31;5558133;32;34477;-56
2023/03/14 07:24:49;;;;;;;16.27;8.82;;;;;;;12.00;52.81;99429.28;5561296;32;33434;-56
2023/03/14 07:27:52;;;;;;;20.25;8.88;;;;;;;11.94;53.15;99428.63;5552801;32;33374;-56
2023/03/14 07:30:55;;;;;;;18.30;9.07;;;;;;;12.14;54.64;99429.16;5552756;32;34948;-56
2023/03/14 07:33:58;;;;;;;15.07;9.30;;;;;;;12.10;53.10;99428.19;5557080;32;33445;-56
2023/03/14 07:37:04;;;;;;;15.35;9.25;;;;;;;12.15;52.37;99423.47;5551812;32;33725;-56
2023/03/14 07:40:10;;;;;;;16.73;9.13;;;;;;;12.19;51.25;99424.44;5548104;32;33373;-56
2023/03/14 07:43:13;;;;;;;17.92;9.63;;;;;;;12.34;54.14;99408.94;5551694;32;34225;-56
2023/03/14 07:46:17;;;;;;;16.85;9.20;;;;;;;12.36;51.94;99401.38;5548178;32;33258;-56
2023/03/14 07:49:19;;;;;;;12.93;8.63;;;;;;;12.44;61.19;99395.97;5549650;32;33554;-56
2023/03/14 07:52:23;;;;;;;12.20;8.13;;;;;;;12.55;52.11;99401.03;5547744;32;33753;-56
2023/03/14 07:55:25;;;;;;;25.67;8.98;;;;;;;12.67;64.07;99391.22;5551246;32;33569;-56
2023/03/14 07:58:29;;;;;;;15.63;8.30;;;;;;;12.83;60.52;99385.38;5560093;32;33193;-56
2023/03/14 08:01:31;;;;;;;17.50;7.75;;;;;;;12.81;54.29;99396.44;5560053;32;33625;-56
2023/03/14 08:04:34;;;;;;;14.80;8.35;;;;;;;12.96;53.63;99376.31;5554556;32;34366;-56
2023/03/14 08:07:36;;;;;;;18.25;9.18;;;;;;;13.04;62.54;99375.50;5559484;32;34320;-56
2023/03/14 08:10:38;;;;;;;19.25;8.25;;;;;;;13.17;59.19;99376.41;5557175;32;32840;-57
2023/03/14 08:13:41;;;;;;;17.48;9.05;;;;;;;13.19;55.06;99363.44;5557058;32;34378;-56
2023/03/14 08:16:43;;;;;;;18.12;8.38;;;;;;;13.35;55.87;99353.75;5558281;32;33300;-56
2023/03/14 08:19:45;;;;;;;14.30;8.90;;;;;;;13.51;51.68;99347.81;5558919;32;33060;-56
2023/03/14 08:22:48;;;;;;;16.55;8.00;;;;;;;13.51;52.35;99347.81;5559547;32;34166;-56
2023/03/14 08:25:51;;;;;;;20.55;7.93;;;;;;;13.56;56.67;99334.16;5561117;32;33791;-56
2023/03/14 08:28:54;;;;;;;19.05;8.60;;;;;;;13.76;66.78;99343.41;5558918;32;31949;-56
2023/03/14 08:31:57;;;;;;;18.33;8.38;;;;;;;13.84;57.41;99351.44;5559217;32;33826;-57
2023/03/14 08:34:59;;;;;;;12.98;7.15;;;;;;;13.90;57.51;99335.06;5562757;32;34209;-56
2023/03/14 08:38:01;;;;;;;13.05;7.72;;;;;;;13.96;53.20;99334.53;5566454;32;33580;-57
2023/03/14 08:41:04;;;;;;;15.95;6.85;;;;;;;14.10;58.18;99342.38;5564126;32;33717;-56
2023/03/14 08:44:07;;;;;;;15.23;7.03;;;;;;;14.37;56.84;99334.84;5558718;32;33581;-57
2023/03/14 08:47:13;;;;;;;14.38;7.78;;;;;;;14.31;51.79;99320.81;5562197;32;34243;-57
2023/03/14 08:50:15;;;;;;;18.70;7.57;;;;;;;14.34;50.23;99326.31;5560511;32;33747;-56
2023/03/14 08:53:20;;;;;;;14.95;7.18;;;;;;;14.43;49.10;99317.34;5557987;32;34001;-56
2023/03/14 08:56:22;;;;;;;20.40;7.43;;;;;;;14.37;48.56;99321.38;5565514;32;33772;-56
2023/03/14 08:59:27;;;;;;;10.13;5.60;;;;;;;14.47;54.17;99316.38;5556681;32;33566;-56
2023/03/14 09:02:30;;;;;;;14.60;6.47;;;;;;;14.62;56.52;99317.69;5559289;32;33781;-56
2023/03/14 09:05:34;;;;;;;15.30;6.20;;;;;;;14.74;53.48;99301.53;5560406;32;33164;-56
2023/03/14 09:08:36;;;;;;;13.40;6.82;;;;;;;14.70;48.04;99303.34;5554303;32;33748;-56
2023/03/14 09:11:41;;;;;;;14.70;6.70;;;;;;;14.77;48.59;99308.97;5555016;32;33397;-56
2023/03/14 09:14:43;;;;;;;13.55;6.68;;;;;;;14.76;47.97;99306.59;5557430;32;33367;-56
2023/03/14 09:17:45;;;;;;;13.48;5.90;;;;;;;14.93;51.03;99292.13;5555412;32;33550;-56
2023/03/14 09:20:49;;;;;;;17.65;6.55;;;;;;;14.95;55.63;99287.97;5558010;32;33586;-56
2023/03/14 09:23:52;;;;;;;11.05;5.93;;;;;;;14.93;48.12;99275.91;5553407;32;33369;-57
2023/03/14 09:26:56;;;;;;;12.82;6.00;;;;;;;15.01;53.09;99278.53;5556854;32;34277;-56
2023/03/14 09:29:58;;;;;;;14.85;6.03;;;;;;;15.07;48.70;99278.31;5556562;32;31932;-57
2023/03/14 09:33:01;;;;;;;8.93;5.85;;;;;;;15.12;50.37;99268.06;5557854;32;33920;-56
2023/03/14 09:36:05;;;;;;;16.30;5.93;;;;;;;15.13;50.63;99263.44;5554801;32;33571;-56
2023/03/14 09:39:07;;;;;;;12.55;6.90;;;;;;;15.28;57.02;99255.47;5552601;32;33869;-56
2023/03/14 09:42:15;;;;;;;15.63;6.18;;;;;;;15.46;56.35;99242.53;5555141;32;33688;-57
2023/03/14 09:45:30;;;;;;;17.00;6.15;;;;;;;15.44;48.85;99244.78;5558025;32;33706;-57
2023/03/14 09:48:34;;;;;;;;;;;;;;;15.43;49.23;99240.50;5557804;32;34765;-56
2023/03/14 09:51:37;;;;;;;12.02;4.90;;;;;;;15.50;47.62;99235.31;5553562;32;34266;-56
2023/03/14 09:55:05;;;;;;;11.73;5.87;;;;;;;15.52;47.05;99234.97;5554570;32;33614;-56
2023/03/14 09:58:15;;;;;;;12.57;5.45;;;;;;;15.61;49.02;99224.81;5556127;32;33526;-57
2023/03/14 10:01:24;;;;;;;11.30;5.37;;;;;;;15.63;47.58;99224.47;5561922;32;34307;-56
2023/03/14 10:04:29;;;;;;;10.82;5.57;;;;;;;15.75;55.90;99210.94;5554134;32;34424;-57
2023/03/14 10:07:33;;;;;;;11.98;5.30;;;;;;;15.87;53.34;99194.69;5561240;32;34471;-57
2023/03/14 10:10:36;;;;;;;10.43;5.47;;;;;;;16.03;58.82;99189.34;5554517;32;33705;-57
2023/03/14 10:14:12;;;;;;;10.82;4.45;;;;;;;16.05;49.87;99189.00;5558847;32;34176;-57
2023/03/14 10:17:17;;;;;;;10.02;2.80;;;;;;;16.27;51.77;99169.50;5549032;32;34266;-56
2023/03/14 10:20:36;;;;;;;4.68;2.50;;;;;;;16.43;46.43;99170.28;5555391;32;35961;-57
2023/03/14 10:23:39;;;;;;;4.53;2.28;;;;;;;16.66;45.64;99165.06;5554147;32;33618;-57
2023/03/14 10:26:42;;;;;;;12.00;2.78;;;;;;;16.76;43.64;99163.00;5556526;32;33955;-57
2023/03/14 10:29:59;;;;;;;9.10;2.35;;;;;;;16.97;51.83;99149.16;5560783;32;33739;-57
2023/03/14 10:33:19;;;;;;;5.50;2.08;;;;;;;17.11;45.98;99144.06;5557151;32;33911;-57
2023/03/14 10:36:26;;;;;;;10.45;2.22;;;;;;;17.14;43.05;99135.22;5554786;32;33661;-57
2023/03/14 10:39:51;;;;;;;14.55;3.33;;;;;;;17.20;43.38;99141.16;5557454;32;32492;-57
2023/03/14 10:42:55;;;;;;;6.78;1.85;;;;;;;17.27;44.77;99127.75;5555710;32;33727;-57
2023/03/14 10:46:01;;;;;;;9.65;2.10;;;;;;;17.26;42.94;99134.31;5559303;32;33924;-57
2023/03/14 10:49:06;;;;;;;5.03;1.77;;;;;;;17.25;44.18;99120.00;5560535;32;33670;-56
2023/03/14 10:52:14;;;;;;;6.72;1.90;;;;;;;17.30;42.92;99118.94;5556916;32;33349;-57
2023/03/14 10:55:16;;;;;;;12.77;2.28;;;;;;;17.31;42.01;99115.06;5555157;32;34441;-57
2023/03/14 10:58:23;;;;;;;6.30;2.20;;;;;;;17.39;42.21;99114.09;5560628;32;33881;-57
2023/03/14 11:01:38;;;;;;;4.75;2.05;;;;;;;17.45;42.04;99101.03;5560965;32;35982;-57
2023/03/14 11:04:47;;;;;;;7.97;1.90;;;;;;;17.54;44.78;99105.09;5559673;32;33639;-57
2023/03/14 11:07:55;;;;;;;4.68;1.67;;;;;;;17.57;40.79;99104.38;5561317;32;33666;-57
2023/03/14 11:11:25;;;;;;;7.30;2.03;;;;;;;17.57;41.23;99092.75;5558229;32;33154;-57
2023/03/14 11:14:38;;;;;;;6.87;2.42;;;;;;;17.59;41.67;99083.12;5561115;32;33661;-57
2023/03/14 11:18:07;;;;;;;7.05;2.40;;;;;;;17.57;43.96;99077.28;5559358;32;34423;-57
2023/03/14 11:21:18;;;;;;;3.90;2.03;;;;;;;17.61;42.03;99080.03;5535132;32;33618;-57
2023/03/14 11:25:06;;;;;;;4.93;1.92;;;;;;;17.65;42.01;99077.41;5558177;32;33134;-56
2023/03/14 11:28:38;;;;;;;4.57;2.08;;;;;;;17.75;40.44;99061.34;5556235;32;34432;-56
2023/03/14 11:31:44;;;;;;;4.25;2.00;;;;;;;17.80;41.46;99058.38;5558980;32;34370;-57
2023/03/14 11:34:54;;;;;;;4.82;2.05;;;;;;;17.79;45.31;99056.81;5553759;32;33669;-57
2023/03/14 11:38:34;;;;;;;5.85;1.85;;;;;;;17.78;42.77;99054.44;5556337;32;34463;-57
2023/03/14 11:41:43;;;;;;;5.05;1.60;;;;;;;17.81;42.28;99051.00;5556117;31;34434;-57
2023/03/14 11:44:49;;;;;;;2.80;1.65;;;;;;;17.85;41.92;99038.31;5567239;31;33247;-57
2023/03/14 11:48:24;;;;;;;7.00;1.75;;;;;;;17.83;41.46;99041.37;5568268;32;33708;-57
2023/03/14 11:51:35;;;;;;;5.12;1.52;;;;;;;17.87;41.84;99036.00;5567300;31;34397;-57
2023/03/14 11:54:55;;;;;;;4.95;1.58;;;;;;;17.97;40.86;99046.25;5568654;32;33658;-57
2023/03/14 11:58:25;;;;;;;4.43;1.65;;;;;;;18.06;43.19;99033.25;5567767;32;33300;-57
2023/03/14 12:01:37;;;;;;;7.40;1.90;;;;;;;18.17;40.38;99027.19;5563355;31;33677;-57
2023/03/14 12:05:15;;;;;;;7.80;1.90;;;;;;;18.23;46.18;99012.97;5563314;32;33224;-57
2023/03/14 12:08:30;;;;;;;3.30;1.52;;;;;;;18.28;41.59;99011.91;5552724;32;33834;-57
2023/03/14 12:11:46;;;;;;;4.72;1.50;;;;;;;18.38;41.08;99005.06;5548742;32;34438;-57
2023/03/14 12:15:02;;;;;;;;;;;;;;;18.41;39.80;99012.44;5548834;32;33650;-57
2023/03/14 12:18:34;;;;;;;5.40;1.83;;;;;;;18.47;39.66;99011.75;5563773;31;34685;-57
2023/03/14 12:22:05;;;;;;;4.50;1.60;;;;;;;18.55;39.60;98999.09;5566462;31;32332;-57
2023/03/14 12:25:11;;;;;;;4.68;1.73;;;;;;;18.61;39.90;98991.41;5549900;32;33287;-57
2023/03/14 12:28:19;;;;;;;2.33;1.48;;;;;;;18.68;39.67;98989.56;5565618;31;33794;-57
2023/03/14 12:31:33;;;;;;;4.72;1.80;;;;;;;18.77;39.18;98981.16;5567109;32;33654;-57
2023/03/14 12:34:42;;;;;;;5.68;2.47;;;;;;;18.76;39.14;98976.91;5568358;32;33788;-57
2023/03/14 12:37:53;;;;;;;4.93;1.70;;;;;;;18.74;39.67;98982.72;5567301;31;33781;-57
2023/03/14 12:41:11;;;;;;;4.80;1.60;;;;;;;18.76;40.84;98983.09;5567174;32;34644;-57
2023/03/14 12:44:29;;;;;;;3.97;1.20;;;;;;;18.72;40.83;98976.09;5567683;32;34505;-57
2023/03/14 12:47:31;;;;;;;4.55;1.90;;;;;;;18.65;39.98;98970.53;5564081;31;33748;-57
2023/03/14 12:50:54;;;;;;;5.85;1.67;;;;;;;18.56;39.91;98968.09;5566223;31;31773;-57
2023/03/14 12:54:17;;;;;;;3.67;1.60;;;;;;;18.47;40.04;98951.28;5550193;32;33632;-57
2023/03/14 12:57:35;;;;;;;3.30;1.60;;;;;;;18.41;41.02;98956.28;5563180;32;33720;-57
2023/03/14 13:00:41;;;;;;;6.43;1.80;;;;;;;18.40;39.83;98949.25;5567707;32;33778;-57
2023/03/14 13:03:54;;;;;;;4.62;2.10;;;;;;;18.35;46.54;98956.97;5566006;32;33905;-57
2023/03/14 13:06:59;;;;;;;7.57;2.10;;;;;;;18.31;44.94;98954.19;5566277;32;34393;-57
2023/03/14 13:10:17;;;;;;;4.47;2.22;;;;;;;18.20;40.48;98945.09;5566048;32;33324;-57
2023/03/14 13:13:22;;;;;;;6.18;2.00;;;;;;;18.15;40.62;98950.88;5564609;32;33783;-57
2023/03/14 13:16:25;;;;;;;4.70;2.03;;;;;;;18.12;41.26;98943.47;5564061;32;33707;-57
2023/03/14 13:19:30;;;;;;;3.65;2.10;;;;;;;18.05;40.27;98939.50;5568728;32;33671;-57
2023/03/14 13:22:36;;;;;;;7.62;2.12;;;;;;;18.07;45.13;98937.19;5570321;32;33604;-57
2023/03/14 13:25:39;;;;;;;3.60;2.00;;;;;;;18.01;41.38;98935.13;5568604;32;33741;-57
2023/03/14 13:28:42;;;;;;;3.70;2.05;;;;;;;17.94;41.91;98930.41;5568763;32;33403;-56
2023/03/14 13:31:46;;;;;;;4.50;1.62;;;;;;;17.83;41.94;98938.38;5569451;32;33833;-57
2023/03/14 13:34:48;;;;;;;5.72;2.17;;;;;;;17.82;41.56;98936.03;5569676;32;33682;-57
2023/03/14 13:38:01;;;;;;;4.85;1.80;;;;;;;17.77;42.60;98941.75;5569676;32;33658;-57
2023/03/14 13:41:14;;;;;;;5.00;2.12;;;;;;;17.72;41.28;98934.69;5549856;32;34340;-57
2023/03/14 13:44:30;;;;;;;5.55;2.35;;;;;;;17.71;42.17;98951.31;5560688;32;33905;-57
2023/03/14 13:47:33;;;;;;;5.53;1.90;;;;;;;17.69;41.71;98953.59;5570457;32;33738;-57
2023/03/14 13:50:35;;;;;;;4.82;2.00;;;;;;;17.67;42.05;98945.81;5570080;32;33608;-57
2023/03/14 13:53:43;;;;;;;4.70;2.17;;;;;;;17.65;42.59;98948.13;5569862;32;34312;-57
2023/03/14 13:56:46;;;;;;;7.43;2.72;;;;;;;17.64;50.18;98946.53;5568303;32;34599;-57
2023/03/14 14:00:09;;;;;;;6.00;2.30;;;;;;;17.64;44.06;98946.53;5569256;32;34027;-57
2023/03/14 14:03:13;;;;;;;8.38;2.60;;;;;;;17.62;42.70;98948.84;5569192;32;33956;-57
2023/03/14 14:06:31;;;;;;;7.43;2.80;;;;;;;17.62;42.55;98948.84;5567991;32;34285;-57
2023/03/14 14:09:45;;;;;;;10.48;4.20;;;;;;;17.65;41.98;98945.41;5569315;32;33716;-57
2023/03/14 14:13:00;;;;;;;11.55;2.83;;;;;;;17.66;43.30;98944.28;5569719;32;33367;-57
2023/03/14 14:16:04;;;;;;;6.53;2.42;;;;;;;17.70;48.71;98945.09;5569586;32;34314;-57
2023/03/14 14:19:06;;;;;;;6.82;2.80;;;;;;;17.66;43.19;98930.72;5569709;32;33944;-57
2023/03/14 14:22:10;;;;;;;7.47;2.35;;;;;;;17.72;46.37;98928.50;5569672;32;34596;-57
2023/03/14 14:25:15;;;;;;;10.02;2.85;;;;;;;17.73;46.32;98933.53;5568657;32;33747;-57
2023/03/14 14:28:20;;;;;;;8.57;2.67;;;;;;;17.72;45.84;98928.50;5569120;32;34370;-57
2023/03/14 14:31:24;;;;;;;4.68;2.37;;;;;;;17.71;44.85;98932.31;5569509;32;33781;-57
2023/03/14 14:34:37;;;;;;;6.68;2.97;;;;;;;17.71;42.61;98935.03;5569589;32;33393;-57
2023/03/14 14:37:44;;;;;;;7.15;2.70;;;;;;;17.74;44.42;98926.19;5568416;32;33622;-57
2023/03/14 14:40:49;;;;;;;8.20;3.80;;;;;;;17.76;47.38;98926.63;5568732;32;33625;-57
2023/03/14 14:43:51;;;;;;;7.93;2.87;;;;;;;17.77;48.19;98928.19;5569302;32;34025;-57
2023/03/14 14:46:55;;;;;;;13.23;3.47;;;;;;;17.77;49.87;98931.69;5569791;32;33755;-57
2023/03/14 14:50:03;;;;;;;8.30;4.60;;;;;;;17.78;47.67;98921.63;5569591;32;33728;-57
2023/03/14 14:53:41;;;;;;;7.25;3.33;;;;;;;17.77;41.91;98912.72;5552208;32;33836;-57
2023/03/14 14:56:51;;;;;;;7.45;3.75;;;;;;;17.85;43.44;98919.06;5549827;32;33713;-57
2023/03/14 15:00:07;;;;;;;7.20;3.62;;;;;;;17.85;44.27;98913.63;5549893;32;34393;-57
2023/03/14 15:03:14;;;;;;;6.78;4.03;;;;;;;17.85;42.96;98916.34;5550206;32;33801;-57
2023/03/14 15:06:18;;;;;;;9.85;4.30;;;;;;;17.80;43.47;98916.63;5549851;32;33626;-57
2023/03/14 15:09:20;;;;;;;10.55;3.92;;;;;;;17.80;44.22;98916.63;5549924;32;33756;-57
2023/03/14 15:12:24;;;;;;;10.48;4.05;;;;;;;17.87;45.82;98927.59;5549919;32;34282;-57
2023/03/14 15:15:26;;;;;;;9.13;3.70;;;;;;;17.86;42.81;98922.53;5549862;32;34285;-57
2023/03/14 15:18:30;;;;;;;6.68;3.70;;;;;;;17.78;46.21;98921.63;5550275;32;33699;-57
2023/03/14 15:21:33;;;;;;;6.18;3.58;;;;;;;17.70;43.85;98930.78;5549886;32;34330;-57
2023/03/14 15:24:35;;;;;;;8.57;3.70;;;;;;;17.64;43.66;98938.41;5550134;32;34302;-57
2023/03/14 15:27:42;;;;;;;8.38;3.85;;;;;;;17.59;42.42;98930.59;5549847;32;34266;-57
2023/03/14 15:30:44;;;;;;;9.35;4.75;;;;;;;17.56;47.06;98945.66;5549841;32;33648;-57
2023/03/14 15:33:47;;;;;;;8.73;4.07;;;;;;;17.50;42.13;98949.03;5549963;32;34455;-57
2023/03/14 15:36:49;;;;;;;12.32;4.00;;;;;;;17.45;44.33;98942.00;5549572;32;33738;-57
2023/03/14 15:39:52;;;;;;;5.57;3.40;;;;;;;17.47;48.60;98947.03;5549718;32;33740;-57
2023/03/14 15:42:54;;;;;;;7.18;3.65;;;;;;;17.46;51.58;98954.38;5559509;32;33596;-57
2023/03/14 15:45:57;;;;;;;10.48;4.40;;;;;;;17.42;53.80;98953.53;5569631;32;33719;-57
2023/03/14 15:48:59;;;;;;;8.80;3.75;;;;;;;17.36;44.73;98963.87;5569315;32;33461;-57
2023/03/14 15:52:01;;;;;;;7.72;4.00;;;;;;;17.33;42.84;98980.84;5569239;32;34213;-57
2023/03/14 15:55:04;;;;;;;7.60;2.85;;;;;;;17.33;42.00;99018.00;5569160;32;33779;-57
2023/03/14 15:58:15;;;;;;;4.20;2.28;;;;;;;17.21;48.22;99018.13;5569280;32;34330;-57
2023/03/14 16:01:19;;;;;;;6.22;2.35;;;;;;;16.97;54.26;99014.59;5569016;32;33805;-57
2023/03/14 16:04:21;;;;;;;7.12;2.50;;;;;;;16.61;56.42;99027.31;5568739;32;33655;-57
2023/03/14 16:07:25;;;;;;;5.95;2.20;;;;;;;16.30;58.21;99030.88;5568721;32;34444;-57
2023/03/14 16:10:27;;;;;;;4.40;2.30;;;;;;;16.25;62.24;99024.94;5569071;32;33733;-56
2023/03/14 16:13:32;;;;;;;3.05;2.22;;;;;;;15.97;63.85;99028.56;5569280;32;33657;-56
2023/03/14 16:16:34;;;;;;;4.82;2.17;;;;;;;15.86;64.72;99019.38;5569143;32;33614;-57
2023/03/14 16:19:37;;;;;;;2.97;2.00;;;;;;;15.67;67.63;99025.47;5569103;32;33846;-57
2023/03/14 16:22:39;;;;;;;5.40;2.58;;;;;;;15.51;69.55;99015.41;5569094;32;33250;-57
2023/03/14 16:25:44;;;;;;;4.45;2.28;;;;;;;15.35;67.82;99011.09;5568957;32;33752;-57
2023/03/14 16:28:47;;;;;;;4.55;2.17;;;;;;;15.38;68.06;99021.22;5568858;32;33631;-57
2023/03/14 16:31:49;;;;;;;5.47;2.40;;;;;;;15.41;68.41;99023.22;5568991;32;34279;-57
2023/03/14 16:34:51;;;;;;;5.07;2.33;;;;;;;15.40;67.97;99022.44;5569166;32;33668;-57
2023/03/14 16:37:54;;;;;;;5.07;2.60;;;;;;;15.35;67.33;99032.69;5568931;32;33779;-57
2023/03/14 16:41:04;;;;;;;6.50;2.72;;;;;;;15.33;69.22;99030.38;5568884;32;33610;-57
2023/03/14 16:44:06;;;;;;;9.45;3.12;;;;;;;15.27;68.60;99046.00;5568809;32;33785;-57
2023/03/14 16:47:09;;;;;;;3.47;2.28;;;;;;;15.20;68.55;99058.53;5568867;32;33723;-57
2023/03/14 16:50:12;;;;;;;4.30;2.10;;;;;;;15.13;68.08;99061.00;5568842;32;33933;-57
2023/03/14 16:53:14;;;;;;;5.82;2.17;;;;;;;15.06;68.20;99077.78;5568514;32;33640;-57
2023/03/14 16:56:17;;;;;;;4.25;2.00;;;;;;;14.99;72.11;99086.47;5568215;32;34344;-57
2023/03/14 16:59:19;;;;;;;5.57;2.25;;;;;;;15.06;68.74;99095.91;5568710;32;33635;-57
2023/03/14 17:02:21;;;;;;;7.15;2.47;;;;;;;14.91;70.03;99100.09;5568070;32;34271;-57
